sensor_id;sensor_type;location;lat;lon;timestamp;temperature;humidity
1978;DHT22;989;53.016;8.346;2022-10-03T00:05:34;10.30;99.90
1978;DHT22;989;53.016;8.346;2022-10-03T00:11:41;10.30;99.90
1978;DHT22;989;53.016;8.346;2022-10-03T00:14:29;10.20;99.90
1978;DHT22;989;53.016;8.346;2022-10-03T00:20:36;10.20;99.90
1978;DHT22;989;53.016;8.346;2022-10-03T00:37:33;10.20;99.90
1978;DHT22;989;53.016;8.346;2022-10-03T00:43:25;10.20;99.90
1978;DHT22;989;53.016;8.346;2022-10-03T00:52:19;10.00;99.90
1978;DHT22;989;53.016;8.346;2022-10-03T00:55:04;9.90;99.90
1978;DHT22;989;53.016;8.346;2022-10-03T00:58:17;9.90;99.90
1978;DHT22;989;53.016;8.346;2022-10-03T01:00:51;9.90;99.90
1978;DHT22;989;53.016;8.346;2022-10-03T01:06:46;9.90;99.90
1978;DHT22;989;53.016;8.346;2022-10-03T01:10:21;10.00;99.90
1978;DHT22;989;53.016;8.346;2022-10-03T01:18:41;9.90;99.90
1978;DHT22;989;53.016;8.346;2022-10-03T01:27:14;9.80;99.90
1978;DHT22;989;53.016;8.346;2022-10-03T01:29:57;9.80;99.90
1978;DHT22;989;53.016;8.346;2022-10-03T01:33:01;9.70;99.90
1978;DHT22;989;53.016;8.346;2022-10-03T01:36:02;9.70;99.90
1978;DHT22;989;53.016;8.346;2022-10-03T01:42:02;9.90;99.90
1978;DHT22;989;53.016;8.346;2022-10-03T01:44:56;10.10;99.90
1978;DHT22;989;53.016;8.346;2022-10-03T01:47:43;10.10;99.90
1978;DHT22;989;53.016;8.346;2022-10-03T01:50:29;10.20;99.90
1978;DHT22;989;53.016;8.346;2022-10-03T01:53:19;10.20;99.90
1978;DHT22;989;53.016;8.346;2022-10-03T01:56:09;10.20;99.90
1978;DHT22;989;53.016;8.346;2022-10-03T01:59:12;10.20;99.90
1978;DHT22;989;53.016;8.346;2022-10-03T02:01:56;10.10;99.90
1978;DHT22;989;53.016;8.346;2022-10-03T02:04:39;10.10;99.90
1978;DHT22;989;53.016;8.346;2022-10-03T02:07:27;9.90;99.90
1978;DHT22;989;53.016;8.346;2022-10-03T02:10:40;9.90;99.90
1978;DHT22;989;53.016;8.346;2022-10-03T02:13:21;9.90;99.90
1978;DHT22;989;53.016;8.346;2022-10-03T02:16:06;9.80;99.90
1978;DHT22;989;53.016;8.346;2022-10-03T02:18:42;9.80;99.90
1978;DHT22;989;53.016;8.346;2022-10-03T02:21:32;9.90;99.90
1978;DHT22;989;53.016;8.346;2022-10-03T02:27:29;9.80;99.90
1978;DHT22;989;53.016;8.346;2022-10-03T02:44:55;9.50;99.90
1978;DHT22;989;53.016;8.346;2022-10-03T02:48:05;9.70;99.90
1978;DHT22;989;53.016;8.346;2022-10-03T02:51:02;9.80;99.90
1978;DHT22;989;53.016;8.346;2022-10-03T02:57:18;9.90;99.90
1978;DHT22;989;53.016;8.346;2022-10-03T03:03:05;9.80;99.90
1978;DHT22;989;53.016;8.346;2022-10-03T03:06:03;9.90;99.90
1978;DHT22;989;53.016;8.346;2022-10-03T03:18:11;10.00;99.90
1978;DHT22;989;53.016;8.346;2022-10-03T03:21:09;10.00;99.90
1978;DHT22;989;53.016;8.346;2022-10-03T03:23:44;10.00;99.90
1978;DHT22;989;53.016;8.346;2022-10-03T03:29:29;9.80;99.90
1978;DHT22;989;53.016;8.346;2022-10-03T03:35:32;9.80;99.90
1978;DHT22;989;53.016;8.346;2022-10-03T03:38:50;9.80;99.90
1978;DHT22;989;53.016;8.346;2022-10-03T03:53:13;9.80;99.90
1978;DHT22;989;53.016;8.346;2022-10-03T04:05:06;9.60;99.90
1978;DHT22;989;53.016;8.346;2022-10-03T04:08:21;9.60;99.90
1978;DHT22;989;53.016;8.346;2022-10-03T04:11:24;9.50;99.90
1978;DHT22;989;53.016;8.346;2022-10-03T04:14:13;9.10;99.90
1978;DHT22;989;53.016;8.346;2022-10-03T04:26:40;8.50;99.90
1978;DHT22;989;53.016;8.346;2022-10-03T04:32:14;8.50;99.90
1978;DHT22;989;53.016;8.346;2022-10-03T04:35:26;8.30;99.90
1978;DHT22;989;53.016;8.346;2022-10-03T04:41:27;8.40;99.90
1978;DHT22;989;53.016;8.346;2022-10-03T04:44:25;8.60;99.90
1978;DHT22;989;53.016;8.346;2022-10-03T04:46:57;8.90;99.90
1978;DHT22;989;53.016;8.346;2022-10-03T04:49:28;9.10;99.90
1978;DHT22;989;53.016;8.346;2022-10-03T04:52:24;9.30;99.90
1978;DHT22;989;53.016;8.346;2022-10-03T04:55:24;9.40;99.90
1978;DHT22;989;53.016;8.346;2022-10-03T04:58:23;9.40;99.90
1978;DHT22;989;53.016;8.346;2022-10-03T05:01:26;9.40;99.90
1978;DHT22;989;53.016;8.346;2022-10-03T05:04:25;9.40;99.90
1978;DHT22;989;53.016;8.346;2022-10-03T05:10:21;9.70;99.90
1978;DHT22;989;53.016;8.346;2022-10-03T05:21:56;10.00;99.90
1978;DHT22;989;53.016;8.346;2022-10-03T05:24:53;10.00;99.90
1978;DHT22;989;53.016;8.346;2022-10-03T05:27:53;10.00;99.90
1978;DHT22;989;53.016;8.346;2022-10-03T05:30:38;10.10;99.90
1978;DHT22;989;53.016;8.346;2022-10-03T05:39:41;10.20;99.90
1978;DHT22;989;53.016;8.346;2022-10-03T05:45:27;10.30;99.90
1978;DHT22;989;53.016;8.346;2022-10-03T05:48:48;10.30;99.90
1978;DHT22;989;53.016;8.346;2022-10-03T05:51:44;10.20;99.90
1978;DHT22;989;53.016;8.346;2022-10-03T06:13:18;10.20;99.90
1978;DHT22;989;53.016;8.346;2022-10-03T06:28:20;10.40;99.90
1978;DHT22;989;53.016;8.346;2022-10-03T06:40:25;10.70;99.90
1978;DHT22;989;53.016;8.346;2022-10-03T06:43:31;10.50;99.90
1978;DHT22;989;53.016;8.346;2022-10-03T06:52:26;10.40;99.90
1978;DHT22;989;53.016;8.346;2022-10-03T06:55:21;10.40;99.90
1978;DHT22;989;53.016;8.346;2022-10-03T07:14:17;11.60;99.90
1978;DHT22;989;53.016;8.346;2022-10-03T07:17:17;11.70;99.90
1978;DHT22;989;53.016;8.346;2022-10-03T07:23:30;12.20;99.90
1978;DHT22;989;53.016;8.346;2022-10-03T07:26:42;12.40;99.90
1978;DHT22;989;53.016;8.346;2022-10-03T07:29:54;12.40;99.90
1978;DHT22;989;53.016;8.346;2022-10-03T07:36:19;12.90;96.90
1978;DHT22;989;53.016;8.346;2022-10-03T07:42:24;13.00;89.30
1978;DHT22;989;53.016;8.346;2022-10-03T07:45:27;12.90;89.80
1978;DHT22;989;53.016;8.346;2022-10-03T07:51:07;13.10;85.70
1978;DHT22;989;53.016;8.346;2022-10-03T08:00:20;13.40;78.00
1978;DHT22;989;53.016;8.346;2022-10-03T08:06:10;13.50;75.10
1978;DHT22;989;53.016;8.346;2022-10-03T08:09:06;13.60;71.50
1978;DHT22;989;53.016;8.346;2022-10-03T08:14:55;13.60;67.10
1978;DHT22;989;53.016;8.346;2022-10-03T08:23:43;13.60;63.70
1978;DHT22;989;53.016;8.346;2022-10-03T08:26:41;13.80;62.30
1978;DHT22;989;53.016;8.346;2022-10-03T08:35:39;13.90;61.80
1978;DHT22;989;53.016;8.346;2022-10-03T08:38:50;13.90;57.10
1978;DHT22;989;53.016;8.346;2022-10-03T08:53:53;14.10;72.20
1978;DHT22;989;53.016;8.346;2022-10-03T08:59:32;14.30;57.10
1978;DHT22;989;53.016;8.346;2022-10-03T09:02:41;14.50;55.40
1978;DHT22;989;53.016;8.346;2022-10-03T09:08:48;14.70;44.10
1978;DHT22;989;53.016;8.346;2022-10-03T09:17:52;15.00;33.50
1978;DHT22;989;53.016;8.346;2022-10-03T09:21:13;15.20;34.20
1978;DHT22;989;53.016;8.346;2022-10-03T09:36:12;15.50;30.00
1978;DHT22;989;53.016;8.346;2022-10-03T09:41:41;15.80;24.30
1978;DHT22;989;53.016;8.346;2022-10-03T09:44:33;15.80;23.60
1978;DHT22;989;53.016;8.346;2022-10-03T09:47:26;15.80;13.40
1978;DHT22;989;53.016;8.346;2022-10-03T09:50:48;15.90;9.20
1978;DHT22;989;53.016;8.346;2022-10-03T10:05:38;16.00;1.00
1978;DHT22;989;53.016;8.346;2022-10-03T10:08:53;16.10;1.00
1978;DHT22;989;53.016;8.346;2022-10-03T10:14:44;16.00;1.10
1978;DHT22;989;53.016;8.346;2022-10-03T10:17:32;16.30;1.00
1978;DHT22;989;53.016;8.346;2022-10-03T10:21:02;16.30;1.00
1978;DHT22;989;53.016;8.346;2022-10-03T10:26:21;16.40;1.00
1978;DHT22;989;53.016;8.346;2022-10-03T10:29:20;16.50;1.00
1978;DHT22;989;53.016;8.346;2022-10-03T10:35:47;17.00;1.00
1978;DHT22;989;53.016;8.346;2022-10-03T10:42:15;16.90;1.00
1978;DHT22;989;53.016;8.346;2022-10-03T10:51:45;17.60;1.00
1978;DHT22;989;53.016;8.346;2022-10-03T10:55:02;17.70;1.00
1978;DHT22;989;53.016;8.346;2022-10-03T11:01:27;17.20;1.00
1978;DHT22;989;53.016;8.346;2022-10-03T11:07:45;18.00;1.00
1978;DHT22;989;53.016;8.346;2022-10-03T11:14:16;17.40;1.00
1978;DHT22;989;53.016;8.346;2022-10-03T11:17:26;17.40;1.00
1978;DHT22;989;53.016;8.346;2022-10-03T11:26:02;17.30;1.00
1978;DHT22;989;53.016;8.346;2022-10-03T11:29:28;17.10;1.00
1978;DHT22;989;53.016;8.346;2022-10-03T11:36:21;17.90;1.00
1978;DHT22;989;53.016;8.346;2022-10-03T11:39:08;18.60;1.00
1978;DHT22;989;53.016;8.346;2022-10-03T11:41:45;18.90;1.00
1978;DHT22;989;53.016;8.346;2022-10-03T11:44:20;18.60;1.00
1978;DHT22;989;53.016;8.346;2022-10-03T11:47:19;18.10;1.00
1978;DHT22;989;53.016;8.346;2022-10-03T11:53:07;17.60;1.00
1978;DHT22;989;53.016;8.346;2022-10-03T11:55:37;18.20;1.00
1978;DHT22;989;53.016;8.346;2022-10-03T12:04:22;18.70;1.00
1978;DHT22;989;53.016;8.346;2022-10-03T12:07:52;18.80;1.00
1978;DHT22;989;53.016;8.346;2022-10-03T12:11:16;18.80;1.00
1978;DHT22;989;53.016;8.346;2022-10-03T12:17:06;19.10;1.00
1978;DHT22;989;53.016;8.346;2022-10-03T12:19:59;19.10;1.00
1978;DHT22;989;53.016;8.346;2022-10-03T12:22:49;19.30;1.00
1978;DHT22;989;53.016;8.346;2022-10-03T12:25:28;18.50;1.00
1978;DHT22;989;53.016;8.346;2022-10-03T12:28:14;18.00;1.00
1978;DHT22;989;53.016;8.346;2022-10-03T12:30:50;18.10;1.00
1978;DHT22;989;53.016;8.346;2022-10-03T12:33:25;18.80;1.00
1978;DHT22;989;53.016;8.346;2022-10-03T12:36:25;19.50;1.00
1978;DHT22;989;53.016;8.346;2022-10-03T12:41:48;20.30;1.00
1978;DHT22;989;53.016;8.346;2022-10-03T12:44:55;20.40;1.00
1978;DHT22;989;53.016;8.346;2022-10-03T12:47:53;19.80;1.00
1978;DHT22;989;53.016;8.346;2022-10-03T12:53:30;18.50;1.00
1978;DHT22;989;53.016;8.346;2022-10-03T12:56:41;19.40;1.00
1978;DHT22;989;53.016;8.346;2022-10-03T12:59:23;19.60;1.00
1978;DHT22;989;53.016;8.346;2022-10-03T13:08:33;17.80;1.00
1978;DHT22;989;53.016;8.346;2022-10-03T13:14:17;18.30;1.00
1978;DHT22;989;53.016;8.346;2022-10-03T13:19:58;19.60;1.00
1978;DHT22;989;53.016;8.346;2022-10-03T13:22:37;18.70;1.00
1978;DHT22;989;53.016;8.346;2022-10-03T13:25:43;18.20;1.00
1978;DHT22;989;53.016;8.346;2022-10-03T13:28:27;18.50;1.00
1978;DHT22;989;53.016;8.346;2022-10-03T13:31:12;18.60;1.00
1978;DHT22;989;53.016;8.346;2022-10-03T13:33:54;19.00;1.00
1978;DHT22;989;53.016;8.346;2022-10-03T13:39:12;18.80;1.00
1978;DHT22;989;53.016;8.346;2022-10-03T13:44:58;18.70;1.00
1978;DHT22;989;53.016;8.346;2022-10-03T13:47:50;18.50;1.00
1978;DHT22;989;53.016;8.346;2022-10-03T13:50:29;18.90;1.00
1978;DHT22;989;53.016;8.346;2022-10-03T13:56:06;18.90;1.00
1978;DHT22;989;53.016;8.346;2022-10-03T13:58:41;19.40;1.00
1978;DHT22;989;53.016;8.346;2022-10-03T14:10:54;19.40;1.00
1978;DHT22;989;53.016;8.346;2022-10-03T14:13:58;19.30;1.00
1978;DHT22;989;53.016;8.346;2022-10-03T14:16:36;18.60;1.00
1978;DHT22;989;53.016;8.346;2022-10-03T14:19:30;18.60;1.00
1978;DHT22;989;53.016;8.346;2022-10-03T14:25:26;19.10;1.00
1978;DHT22;989;53.016;8.346;2022-10-03T14:27:59;19.40;1.00
1978;DHT22;989;53.016;8.346;2022-10-03T14:30:46;19.90;1.00
1978;DHT22;989;53.016;8.346;2022-10-03T14:36:42;19.50;1.00
1978;DHT22;989;53.016;8.346;2022-10-03T14:42:40;18.60;1.00
1978;DHT22;989;53.016;8.346;2022-10-03T14:45:21;18.40;1.00
1978;DHT22;989;53.016;8.346;2022-10-03T14:47:55;18.40;1.00
1978;DHT22;989;53.016;8.346;2022-10-03T14:50:26;18.80;1.00
1978;DHT22;989;53.016;8.346;2022-10-03T14:52:57;18.90;1.00
1978;DHT22;989;53.016;8.346;2022-10-03T14:55:37;18.30;1.00
1978;DHT22;989;53.016;8.346;2022-10-03T14:58:22;18.60;1.00
1978;DHT22;989;53.016;8.346;2022-10-03T15:03:37;18.90;1.00
1978;DHT22;989;53.016;8.346;2022-10-03T15:08:42;18.30;1.00
1978;DHT22;989;53.016;8.346;2022-10-03T15:11:12;18.10;1.00
1978;DHT22;989;53.016;8.346;2022-10-03T15:13:50;17.50;1.00
1978;DHT22;989;53.016;8.346;2022-10-03T15:16:21;17.10;1.00
1978;DHT22;989;53.016;8.346;2022-10-03T15:19:13;16.90;1.00
1978;DHT22;989;53.016;8.346;2022-10-03T15:22:24;16.80;1.00
1978;DHT22;989;53.016;8.346;2022-10-03T15:25:19;16.60;1.00
1978;DHT22;989;53.016;8.346;2022-10-03T15:27:50;16.70;1.00
1978;DHT22;989;53.016;8.346;2022-10-03T15:30:26;16.60;1.00
1978;DHT22;989;53.016;8.346;2022-10-03T15:33:23;16.70;1.00
1978;DHT22;989;53.016;8.346;2022-10-03T15:35:56;16.80;1.00
1978;DHT22;989;53.016;8.346;2022-10-03T15:38:37;16.70;1.00
1978;DHT22;989;53.016;8.346;2022-10-03T15:43:58;16.50;1.00
1978;DHT22;989;53.016;8.346;2022-10-03T15:46:52;16.30;1.00
1978;DHT22;989;53.016;8.346;2022-10-03T15:49:29;16.20;1.00
1978;DHT22;989;53.016;8.346;2022-10-03T15:52:19;16.10;1.00
1978;DHT22;989;53.016;8.346;2022-10-03T15:54:52;16.10;1.00
1978;DHT22;989;53.016;8.346;2022-10-03T15:57:27;16.10;1.00
1978;DHT22;989;53.016;8.346;2022-10-03T15:59:55;15.90;1.00
1978;DHT22;989;53.016;8.346;2022-10-03T16:02:35;15.90;1.00
1978;DHT22;989;53.016;8.346;2022-10-03T16:05:06;15.90;1.00
1978;DHT22;989;53.016;8.346;2022-10-03T16:10:26;15.80;1.00
1978;DHT22;989;53.016;8.346;2022-10-03T16:13:00;15.70;1.00
1978;DHT22;989;53.016;8.346;2022-10-03T16:15:56;15.70;1.00
1978;DHT22;989;53.016;8.346;2022-10-03T16:24:05;15.30;1.00
1978;DHT22;989;53.016;8.346;2022-10-03T16:26:45;15.10;3.10
1978;DHT22;989;53.016;8.346;2022-10-03T16:29:21;15.00;4.40
1978;DHT22;989;53.016;8.346;2022-10-03T16:31:54;15.00;6.80
1978;DHT22;989;53.016;8.346;2022-10-03T16:34:26;14.80;9.30
1978;DHT22;989;53.016;8.346;2022-10-03T16:36:55;14.80;10.60
1978;DHT22;989;53.016;8.346;2022-10-03T16:39:34;14.70;12.90
1978;DHT22;989;53.016;8.346;2022-10-03T16:42:10;14.60;13.40
1978;DHT22;989;53.016;8.346;2022-10-03T16:44:50;14.50;18.20
1978;DHT22;989;53.016;8.346;2022-10-03T16:47:32;14.40;18.30
1978;DHT22;989;53.016;8.346;2022-10-03T16:50:00;14.30;20.30
1978;DHT22;989;53.016;8.346;2022-10-03T16:52:53;14.20;24.10
1978;DHT22;989;53.016;8.346;2022-10-03T16:55:30;14.10;27.00
1978;DHT22;989;53.016;8.346;2022-10-03T17:01:03;13.80;32.50
1978;DHT22;989;53.016;8.346;2022-10-03T17:03:39;13.70;38.40
1978;DHT22;989;53.016;8.346;2022-10-03T17:06:20;13.70;38.80
1978;DHT22;989;53.016;8.346;2022-10-03T17:08:50;13.60;41.30
1978;DHT22;989;53.016;8.346;2022-10-03T17:11:20;13.40;43.00
1978;DHT22;989;53.016;8.346;2022-10-03T17:13:55;13.20;47.40
1978;DHT22;989;53.016;8.346;2022-10-03T17:16:56;12.90;50.90
1978;DHT22;989;53.016;8.346;2022-10-03T17:19:35;12.90;61.60
1978;DHT22;989;53.016;8.346;2022-10-03T17:22:21;12.80;64.90
1978;DHT22;989;53.016;8.346;2022-10-03T17:28:37;12.80;74.40
1978;DHT22;989;53.016;8.346;2022-10-03T17:34:17;12.70;79.90
1978;DHT22;989;53.016;8.346;2022-10-03T17:37:02;12.90;79.70
1978;DHT22;989;53.016;8.346;2022-10-03T17:42:36;12.80;75.00
1978;DHT22;989;53.016;8.346;2022-10-03T17:45:24;12.60;77.10
1978;DHT22;989;53.016;8.346;2022-10-03T17:48:11;12.50;85.60
1978;DHT22;989;53.016;8.346;2022-10-03T17:53:21;12.40;90.20
1978;DHT22;989;53.016;8.346;2022-10-03T17:55:56;12.50;92.20
1978;DHT22;989;53.016;8.346;2022-10-03T17:58:26;12.40;92.40
1978;DHT22;989;53.016;8.346;2022-10-03T18:01:15;12.40;92.60
1978;DHT22;989;53.016;8.346;2022-10-03T18:03:53;12.40;93.20
1978;DHT22;989;53.016;8.346;2022-10-03T18:11:40;12.00;94.10
1978;DHT22;989;53.016;8.346;2022-10-03T18:17:25;11.60;94.80
1978;DHT22;989;53.016;8.346;2022-10-03T18:20:54;11.40;97.40
1978;DHT22;989;53.016;8.346;2022-10-03T18:23:50;11.10;97.60
1978;DHT22;989;53.016;8.346;2022-10-03T18:26:38;10.90;98.70
1978;DHT22;989;53.016;8.346;2022-10-03T18:34:43;10.60;99.90
1978;DHT22;989;53.016;8.346;2022-10-03T18:39:54;10.60;99.90
1978;DHT22;989;53.016;8.346;2022-10-03T18:42:23;10.60;99.90
1978;DHT22;989;53.016;8.346;2022-10-03T18:44:51;10.40;99.90
1978;DHT22;989;53.016;8.346;2022-10-03T18:47:40;10.30;99.90
1978;DHT22;989;53.016;8.346;2022-10-03T18:50:29;10.10;99.90
1978;DHT22;989;53.016;8.346;2022-10-03T18:56:12;9.90;99.90
1978;DHT22;989;53.016;8.346;2022-10-03T18:58:56;9.90;99.90
1978;DHT22;989;53.016;8.346;2022-10-03T19:01:43;9.80;99.90
1978;DHT22;989;53.016;8.346;2022-10-03T19:04:45;9.70;99.90
1978;DHT22;989;53.016;8.346;2022-10-03T19:07:19;9.70;99.90
1978;DHT22;989;53.016;8.346;2022-10-03T19:12:42;9.60;99.90
1978;DHT22;989;53.016;8.346;2022-10-03T19:15:16;9.60;99.90
1978;DHT22;989;53.016;8.346;2022-10-03T19:20:54;9.50;99.90
1978;DHT22;989;53.016;8.346;2022-10-03T19:23:25;9.70;99.90
1978;DHT22;989;53.016;8.346;2022-10-03T19:25:59;9.70;99.90
1978;DHT22;989;53.016;8.346;2022-10-03T19:28:48;9.70;99.90
1978;DHT22;989;53.016;8.346;2022-10-03T19:31:37;9.70;99.90
1978;DHT22;989;53.016;8.346;2022-10-03T19:34:20;9.50;99.90
1978;DHT22;989;53.016;8.346;2022-10-03T19:36:50;9.40;99.90
1978;DHT22;989;53.016;8.346;2022-10-03T19:39:18;9.30;99.90
1978;DHT22;989;53.016;8.346;2022-10-03T19:41:53;9.30;99.90
1978;DHT22;989;53.016;8.346;2022-10-03T19:44:47;9.50;99.90
1978;DHT22;989;53.016;8.346;2022-10-03T19:47:20;9.50;99.90
1978;DHT22;989;53.016;8.346;2022-10-03T19:50:01;9.40;99.90
1978;DHT22;989;53.016;8.346;2022-10-03T19:52:34;9.30;99.90
1978;DHT22;989;53.016;8.346;2022-10-03T19:55:19;9.30;99.90
1978;DHT22;989;53.016;8.346;2022-10-03T19:58:17;9.20;99.90
1978;DHT22;989;53.016;8.346;2022-10-03T20:00:56;9.10;99.90
1978;DHT22;989;53.016;8.346;2022-10-03T20:03:35;9.20;99.90
1978;DHT22;989;53.016;8.346;2022-10-03T20:06:21;9.30;99.90
1978;DHT22;989;53.016;8.346;2022-10-03T20:09:14;9.40;99.90
1978;DHT22;989;53.016;8.346;2022-10-03T20:11:48;9.50;99.90
1978;DHT22;989;53.016;8.346;2022-10-03T20:14:19;9.60;99.90
1978;DHT22;989;53.016;8.346;2022-10-03T20:17:14;9.70;99.90
1978;DHT22;989;53.016;8.346;2022-10-03T20:20:01;9.70;99.90
1978;DHT22;989;53.016;8.346;2022-10-03T20:22:31;9.90;99.90
1978;DHT22;989;53.016;8.346;2022-10-03T20:25:03;9.90;99.90
1978;DHT22;989;53.016;8.346;2022-10-03T20:27:47;9.80;99.90
1978;DHT22;989;53.016;8.346;2022-10-03T20:33:15;9.80;99.90
1978;DHT22;989;53.016;8.346;2022-10-03T20:36:15;9.80;99.90
1978;DHT22;989;53.016;8.346;2022-10-03T20:39:03;9.80;99.90
1978;DHT22;989;53.016;8.346;2022-10-03T20:44:21;9.80;99.90
1978;DHT22;989;53.016;8.346;2022-10-03T20:47:50;9.80;99.90
1978;DHT22;989;53.016;8.346;2022-10-03T20:50:42;9.80;99.90
1978;DHT22;989;53.016;8.346;2022-10-03T20:53:22;9.70;99.90
1978;DHT22;989;53.016;8.346;2022-10-03T20:55:52;9.70;99.90
1978;DHT22;989;53.016;8.346;2022-10-03T21:01:23;9.70;99.90
1978;DHT22;989;53.016;8.346;2022-10-03T21:04:17;9.70;99.90
1978;DHT22;989;53.016;8.346;2022-10-03T21:06:58;9.80;99.90
1978;DHT22;989;53.016;8.346;2022-10-03T21:09:52;9.80;99.90
1978;DHT22;989;53.016;8.346;2022-10-03T21:12:27;9.80;99.90
1978;DHT22;989;53.016;8.346;2022-10-03T21:15:06;9.70;99.90
1978;DHT22;989;53.016;8.346;2022-10-03T21:17:37;9.70;99.90
1978;DHT22;989;53.016;8.346;2022-10-03T21:20:14;9.60;99.90
1978;DHT22;989;53.016;8.346;2022-10-03T21:22:43;9.50;99.90
1978;DHT22;989;53.016;8.346;2022-10-03T21:25:23;9.30;99.90
1978;DHT22;989;53.016;8.346;2022-10-03T21:27:54;9.30;99.90
1978;DHT22;989;53.016;8.346;2022-10-03T21:33:17;9.20;99.90
1978;DHT22;989;53.016;8.346;2022-10-03T21:35:45;9.20;99.90
1978;DHT22;989;53.016;8.346;2022-10-03T21:38:47;9.10;99.90
1978;DHT22;989;53.016;8.346;2022-10-03T21:44:04;9.10;99.90
1978;DHT22;989;53.016;8.346;2022-10-03T21:55:45;9.00;99.90
1978;DHT22;989;53.016;8.346;2022-10-03T21:58:29;8.90;99.90
1978;DHT22;989;53.016;8.346;2022-10-03T22:04:21;8.80;99.90
1978;DHT22;989;53.016;8.346;2022-10-03T22:07:01;8.80;99.90
1978;DHT22;989;53.016;8.346;2022-10-03T22:09:30;8.80;99.90
1978;DHT22;989;53.016;8.346;2022-10-03T22:12:02;8.80;99.90
1978;DHT22;989;53.016;8.346;2022-10-03T22:17:28;8.90;99.90
1978;DHT22;989;53.016;8.346;2022-10-03T22:26:08;8.90;99.90
1978;DHT22;989;53.016;8.346;2022-10-03T22:37:18;9.10;99.90
1978;DHT22;989;53.016;8.346;2022-10-03T22:39:44;9.10;99.90
1978;DHT22;989;53.016;8.346;2022-10-03T22:42:13;9.10;99.90
1978;DHT22;989;53.016;8.346;2022-10-03T22:44:43;9.10;99.90
1978;DHT22;989;53.016;8.346;2022-10-03T22:47:20;9.20;99.90
1978;DHT22;989;53.016;8.346;2022-10-03T22:49:49;9.40;99.90
1978;DHT22;989;53.016;8.346;2022-10-03T22:52:26;9.40;99.90
1978;DHT22;989;53.016;8.346;2022-10-03T22:54:55;9.40;99.90
1978;DHT22;989;53.016;8.346;2022-10-03T22:57:22;9.50;99.90
1978;DHT22;989;53.016;8.346;2022-10-03T22:59:56;9.60;99.90
1978;DHT22;989;53.016;8.346;2022-10-03T23:02:30;9.60;99.90
1978;DHT22;989;53.016;8.346;2022-10-03T23:05:09;9.60;99.90
1978;DHT22;989;53.016;8.346;2022-10-03T23:08:00;9.50;99.90
1978;DHT22;989;53.016;8.346;2022-10-03T23:10:43;9.60;99.90
1978;DHT22;989;53.016;8.346;2022-10-03T23:13:36;9.60;99.90
1978;DHT22;989;53.016;8.346;2022-10-03T23:16:17;9.70;99.90
1978;DHT22;989;53.016;8.346;2022-10-03T23:21:57;9.70;99.90
1978;DHT22;989;53.016;8.346;2022-10-03T23:24:31;9.80;99.90
1978;DHT22;989;53.016;8.346;2022-10-03T23:27:28;9.80;99.90
1978;DHT22;989;53.016;8.346;2022-10-03T23:35:33;10.00;99.90
1978;DHT22;989;53.016;8.346;2022-10-03T23:40:56;10.00;99.90
1978;DHT22;989;53.016;8.346;2022-10-03T23:43:35;10.10;99.90
1978;DHT22;989;53.016;8.346;2022-10-03T23:46:19;10.10;99.90
1978;DHT22;989;53.016;8.346;2022-10-03T23:48:58;10.10;99.90
1978;DHT22;989;53.016;8.346;2022-10-03T23:51:31;10.10;99.90
1978;DHT22;989;53.016;8.346;2022-10-03T23:54:00;10.00;99.90
1978;DHT22;989;53.016;8.346;2022-10-03T23:56:41;10.10;99.90
